الصفحة الرئيسية
METAR-TAF:

METAR-TAF

مطار :

مطار ميامي الدولي

ميامي, فلوريدا, الولايات المتحدة

دائرة عرض: 25-47-26N, خط طول: 080-18-59W, ارتفاع: 3 متر

مراقبة الطقس الحالي

تاريخ ووقت الإصدار 12ساعات و 34 دقيقة قبل الساعة 04:53UTC
رياح هادئة
درجة الحرارة 27°درجة مئوية
الرطوبة 84%
ضغط 1020 hPa
الرؤية: 16.1 كم
غيوم قليلة على ارتفاع 3000 قدم
غيوم متفرقة على ارتفاع 25000 قدم

METAR: KMIA 210453Z 00000KT 10SM FEW030 SCT250 27/24 A3011 RMK AO2 SLP195 T02720244 403280261

زمن: 13:27 (17:27 UTC)

توقعات

تاريخ ووقت الإصدار 14ساعات و 30 دقيقة قبل الساعة 02:57UTC
التوقعات صالحة من21 الساعة 03 UTC إلى 22 الساعة 06 UTC
ريح 4 عقدةمن اتجاهات متغيرة
الرؤية: 10 كم
غيوم قليلة على ارتفاع 2500 قدم
غيوم مفككة على ارتفاع 25000 قدم
من 21 الساعة 1400 UTC
ريح 9 عقدة من الشرق/الجنوب الشرقي
الرؤية: 10 كم
غيوم متفرقة على ارتفاع 3500 قدم
من 22 الساعة 0100 UTC
ريح 5 عقدة من الشرق/الجنوب الشرقي
الرؤية: 10 كم
غيوم قليلة على ارتفاع 3000 قدم
غيوم متفرقة على ارتفاع 25000 قدم

TAF: KMIA 210257Z 2103/2206 VRB04KT P6SM FEW025 BKN250 FM211400 11009KT P6SM SCT035 FM220100 11005KT P6SM FEW030 SCT250

أرصاد الطقس والتوقعات من أكثر من 4000 مطار (تقارير الطقس للمطار METAR والتنبؤ بالطقس بالمطارTAF).

المحطات المتاحة هي النقط الصفراء والحمراء على الخريطة.

حرك المؤشر فوق النقطة لمعرفة اسم المحطة.

ثم انقر لمعرفة أرصاد وتوقعات الطقس.

لتغيير الخارطة: اضغط على الأزرار الخضراء مع رمز الصليب الأسود للتكبير. على الزر الأخضر مع شرطة للتصغير، أو على الأسهم الخضراء للخرائط المجاورة.


METAR-TAF: